Time;durP1;ratioP1;P1;durP2;ratioP2;P2;SDS_P1;SDS_P2;PMS_P1;PMS_P2;Temp;Humidity;BMP_temperature;BMP_pressure;BME280_temperature;BME280_humidity;BME280_pressure;Samples;Min_cycle;Max_cycle;Signal;HPM_P1;HPM_P2
2022/10/09 00:00:34;;;;;;;;;;;;;;;16.11;75.22;101419.63;5016657;28;2114;-59
2022/10/09 00:02:59;;;;;;;;;;;;;;;16.10;75.24;101427.06;5020575;28;2083;-59
2022/10/09 00:05:25;;;;;;;;;;;;;;;16.11;75.36;101430.66;5011127;28;1848;-59
2022/10/09 00:07:51;;;;;;;;;;;;;;;16.09;75.46;101425.44;5020771;28;1757;-59
2022/10/09 00:10:16;;;;;;;;;;;;;;;16.09;75.21;101425.44;5021117;28;2114;-58
2022/10/09 00:12:41;;;;;;;;;;;;;;;16.09;75.46;101425.44;5014350;28;1798;-59
2022/10/09 00:15:06;;;;;;;;;;;;;;;16.09;75.23;101428.19;5014068;28;1981;-59
2022/10/09 00:17:31;;;;;;;;;;;;;;;16.10;75.49;101427.06;5012219;28;1776;-59
2022/10/09 00:19:56;;;;;;;;;;;;;;;16.10;75.44;101427.06;5014461;28;1731;-58
2022/10/09 00:22:22;;;;;;;;;;;;;;;16.09;75.52;101422.66;5020485;28;2163;-59
2022/10/09 00:24:47;;;;;;;;;;;;;;;16.09;75.89;101428.19;5020565;28;1818;-58
2022/10/09 00:27:12;;;;;;;;;;;;;;;16.08;75.71;101426.53;5025568;28;1770;-58
2022/10/09 00:29:37;;;;;;;;;;;;;;;16.10;75.89;101424.31;5015916;28;1851;-59
2022/10/09 00:32:02;;;;;;;;;;;;;;;16.09;75.58;101421.84;5018089;28;1754;-58
2022/10/09 00:34:27;;;;;;;;;;;;;;;16.08;76.02;101421.00;5011470;28;1875;-59
2022/10/09 00:36:53;;;;;;;;;;;;;;;16.07;75.58;101422.16;5022172;28;2081;-58
2022/10/09 00:39:18;;;;;;;;;;;;;;;16.07;75.57;101430.44;5020440;28;1914;-59
2022/10/09 00:41:43;;;;;;;;;;;;;;;16.06;75.89;101425.22;5018903;28;1988;-59
2022/10/09 00:44:27;;;;;;;;;;;;;;;16.05;75.88;101418.88;5022513;28;1738;-59
2022/10/09 00:46:52;;;;;;;;;;;;;;;16.06;75.78;101425.22;5010105;28;2101;-59
2022/10/09 00:49:25;;;;;;;;;;;;;;;16.04;75.91;101428.25;5019513;28;1828;-59
2022/10/09 00:51:53;;;;;;;;;;;;;;;16.05;75.97;101429.91;5011000;28;1898;-59
2022/10/09 00:54:21;;;;;;;;;;;;;;;16.04;75.93;101421.91;5019677;28;2106;-58
2022/10/09 00:56:47;;;;;;;;;;;;;;;16.05;75.73;101423.56;5020146;28;1965;-59
2022/10/09 00:59:12;;;;;;;;;;;;;;;16.04;75.63;101433.78;5009469;28;2118;-59
2022/10/09 01:01:39;;;;;;;;;;;;;;;16.04;75.75;101432.97;5009673;28;1829;-59
2022/10/09 01:04:04;;;;;;;;;;;;;;;16.03;75.81;101434.06;5014810;28;2144;-58
2022/10/09 01:06:35;;;;;;;;;;;;;;;16.01;75.68;101434.38;5007893;28;2118;-59
2022/10/09 01:09:04;;;;;;;;;;;;;;;16.02;75.75;101432.44;5015840;28;2438;-59
2022/10/09 01:11:29;;;;;;;;;;;;;;;16.04;76.01;101435.72;5021542;28;1773;-59
2022/10/09 01:14:20;;;;;;;;;;;;;;;16.02;75.53;101433.25;5024095;28;1796;-59
2022/10/09 01:17:09;;;;;;;;;;;;;;;16.02;75.81;101436.00;5011281;28;1894;-58
2022/10/09 01:19:43;;;;;;;;;;;;;;;16.02;75.48;101433.25;5020385;28;1903;-59
2022/10/09 01:22:27;;;;;;;;;;;;;;;16.02;75.57;101433.25;5023477;28;2040;-58
2022/10/09 01:24:58;;;;;;;;;;;;;;;16.02;76.11;101427.72;5017432;28;2093;-59
2022/10/09 01:27:24;;;;;;;;;;;;;;;16.03;76.23;101431.31;5024861;28;1743;-59
2022/10/09 01:29:53;;;;;;;;;;;;;;;16.02;75.92;101424.97;5023117;28;2110;-59
2022/10/09 01:32:21;;;;;;;;;;;;;;;16.01;75.86;101423.31;5013478;28;1765;-59
2022/10/09 01:34:49;;;;;;;;;;;;;;;16.01;75.93;101430.78;5014475;28;1913;-59
2022/10/09 01:37:15;;;;;;;;;;;;;;;16.01;76.03;101428.00;5014572;28;2362;-59
2022/10/09 01:39:41;;;;;;;;;;;;;;;16.00;76.17;101432.72;5022844;28;1805;-59
2022/10/09 01:42:07;;;;;;;;;;;;;;;16.01;76.53;101439.88;5023471;28;1768;-58
2022/10/09 01:44:33;;;;;;;;;;;;;;;16.00;75.97;101440.19;5024714;28;1712;-59
2022/10/09 01:46:58;;;;;;;;;;;;;;;16.00;75.93;101434.66;5022312;28;2431;-59
2022/10/09 01:49:31;;;;;;;;;;;;;;;15.98;75.58;101437.72;5019093;28;2122;-59
2022/10/09 01:52:01;;;;;;;;;;;;;;;15.99;75.65;101446.84;5006783;28;2361;-59
2022/10/09 01:54:50;;;;;;;;;;;;;;;15.99;75.72;101449.59;5015745;28;1853;-58
2022/10/09 01:57:20;;;;;;;;;;;;;;;15.97;75.84;101436.09;5018617;28;1894;-59
2022/10/09 01:59:46;;;;;;;;;;;;;;;15.96;76.00;101439.97;5023989;28;1829;-58
2022/10/09 02:02:11;;;;;;;;;;;;;;;15.97;75.31;101443.53;5022525;28;2068;-58
2022/10/09 02:04:39;;;;;;;;;;;;;;;15.96;76.19;101436.38;5023014;28;1851;-58
2022/10/09 02:07:04;;;;;;;;;;;;;;;15.95;75.90;101446.59;5013213;28;2120;-58
2022/10/09 02:09:30;;;;;;;;;;;;;;;15.94;76.22;101439.41;5016256;28;1471;-59
2022/10/09 02:11:58;;;;;;;;;;;;;;;15.93;76.43;101442.47;5009407;28;1856;-59
2022/10/09 02:14:23;;;;;;;;;;;;;;;15.93;76.19;101443.28;5025338;28;2039;-58
2022/10/09 02:16:53;;;;;;;;;;;;;;;15.94;76.50;101442.19;5021856;28;1957;-59
2022/10/09 02:19:22;;;;;;;;;;;;;;;15.95;76.22;101429.19;5026055;28;1733;-58
2022/10/09 02:22:16;;;;;;;;;;;;;;;15.94;76.21;101442.19;5020740;28;2037;-58
2022/10/09 02:24:42;;;;;;;;;;;;;;;15.94;76.09;101444.94;5008874;28;2168;-59
2022/10/09 02:27:07;;;;;;;;;;;;;;;15.94;76.23;101441.34;5024933;28;1876;-58
2022/10/09 02:29:33;;;;;;;;;;;;;;;15.94;76.12;101444.13;5014849;28;2253;-59
2022/10/09 02:31:58;;;;;;;;;;;;;;;15.93;75.95;101443.28;5023371;28;2236;-59
2022/10/09 02:34:24;;;;;;;;;;;;;;;15.93;76.16;101448.00;5021902;28;1886;-59
2022/10/09 02:36:49;;;;;;;;;;;;;;;15.93;75.89;101445.22;5017317;28;1916;-59
2022/10/09 02:39:14;;;;;;;;;;;;;;;15.93;75.82;101445.22;5022182;28;1385;-58
2022/10/09 02:41:40;;;;;;;;;;;;;;;15.92;76.08;101438.88;5023521;28;2237;-59
2022/10/09 02:44:05;;;;;;;;;;;;;;;15.93;76.28;101445.22;5020861;28;1885;-59
2022/10/09 02:46:31;;;;;;;;;;;;;;;15.93;76.14;101436.94;5022297;28;1833;-58
2022/10/09 02:48:56;;;;;;;;;;;;;;;15.91;76.14;101442.75;5025361;28;1876;-59
2022/10/09 02:51:22;;;;;;;;;;;;;;;15.92;76.07;101436.13;5011907;28;1905;-59
2022/10/09 02:53:47;;;;;;;;;;;;;;;15.91;76.59;101434.47;5016450;28;1853;-59
2022/10/09 02:56:12;;;;;;;;;;;;;;;15.92;76.24;101441.66;5021021;28;1898;-58
2022/10/09 02:58:37;;;;;;;;;;;;;;;15.91;76.22;101440.00;5023818;28;1923;-59
2022/10/09 03:01:03;;;;;;;;;;;;;;;15.91;76.00;101441.97;5025764;28;1856;-58
2022/10/09 03:03:29;;;;;;;;;;;;;;;15.89;76.12;101439.50;5023201;28;1995;-59
2022/10/09 03:06:01;;;;;;;;;;;;;;;15.88;76.25;101435.91;5011165;28;2358;-59
2022/10/09 03:08:26;;;;;;;;;;;;;;;15.88;76.39;101444.19;5012690;28;2001;-59
2022/10/09 03:10:52;;;;;;;;;;;;;;;15.88;76.08;101432.31;5025661;28;1537;-59
2022/10/09 03:13:17;;;;;;;;;;;;;;;15.87;76.53;101434.25;5020928;28;2231;-59
2022/10/09 03:15:42;;;;;;;;;;;;;;;15.86;76.33;101438.13;5022636;28;1939;-58
2022/10/09 03:18:07;;;;;;;;;;;;;;;15.86;76.24;101449.16;5013695;28;2088;-58
2022/10/09 03:20:32;;;;;;;;;;;;;;;15.86;76.33;101440.06;5012011;28;1842;-59
2022/10/09 03:22:57;;;;;;;;;;;;;;;15.85;76.32;101442.00;5013699;28;1940;-59
2022/10/09 03:25:23;;;;;;;;;;;;;;;15.84;76.57;101440.34;5023283;28;1877;-59
2022/10/09 03:27:48;;;;;;;;;;;;;;;15.84;76.59;101445.88;5019224;28;1901;-59
2022/10/09 03:30:13;;;;;;;;;;;;;;;15.84;76.39;101440.34;5020120;28;1766;-59
2022/10/09 03:32:38;;;;;;;;;;;;;;;15.84;76.42;101445.06;5016345;28;1810;-59
2022/10/09 03:35:04;;;;;;;;;;;;;;;15.84;76.34;101450.56;5012621;28;2271;-59
2022/10/09 03:37:29;;;;;;;;;;;;;;;15.83;76.42;101449.75;5026626;28;1969;-59
2022/10/09 03:39:54;;;;;;;;;;;;;;;15.83;76.42;101454.44;5015167;28;2263;-59
2022/10/09 03:42:19;;;;;;;;;;;;;;;15.83;76.35;101451.69;5019964;28;1815;-58
2022/10/09 03:44:44;;;;;;;;;;;;;;;15.82;76.38;101456.38;5023777;28;1751;-59
2022/10/09 03:47:10;;;;;;;;;;;;;;;15.82;76.55;101455.59;5011210;28;1892;-59
2022/10/09 03:49:35;;;;;;;;;;;;;;;15.82;76.43;101455.59;5013426;28;1836;-58
2022/10/09 03:52:00;;;;;;;;;;;;;;;15.81;76.43;101457.53;5019050;28;2399;-58
2022/10/09 03:54:25;;;;;;;;;;;;;;;15.81;76.64;101456.69;5020818;28;2006;-60
2022/10/09 03:56:50;;;;;;;;;;;;;;;15.80;76.38;101458.63;5022147;28;2641;-60
2022/10/09 03:59:15;;;;;;;;;;;;;;;15.81;76.28;101453.94;5024477;28;2256;-59
2022/10/09 04:01:41;;;;;;;;;;;;;;;15.80;76.68;101455.03;5008168;28;1875;-59
2022/10/09 04:04:06;;;;;;;;;;;;;;;15.80;76.30;101453.13;5014214;28;2113;-58
2022/10/09 04:06:31;;;;;;;;;;;;;;;15.80;76.30;101455.03;5023583;28;1879;-58
2022/10/09 04:08:56;;;;;;;;;;;;;;;15.80;76.42;101455.88;5020129;28;2193;-58
2022/10/09 04:11:21;;;;;;;;;;;;;;;15.81;76.50;101459.47;5027002;28;2086;-58
2022/10/09 04:13:46;;;;;;;;;;;;;;;15.81;76.47;101464.97;5020141;28;2148;-58
2022/10/09 04:16:12;;;;;;;;;;;;;;;15.81;76.05;101452.00;5011590;28;2121;-58
2022/10/09 04:18:38;;;;;;;;;;;;;;;15.80;76.73;101461.41;5013175;28;2250;-58
2022/10/09 04:21:03;;;;;;;;;;;;;;;15.80;76.53;101460.56;5019721;28;1870;-59
2022/10/09 04:23:29;;;;;;;;;;;;;;;15.78;76.71;101469.13;5013035;28;1910;-58
2022/10/09 04:25:55;;;;;;;;;;;;;;;15.79;76.63;101467.19;5022410;28;2225;-59
2022/10/09 04:28:22;;;;;;;;;;;;;;;15.78;76.58;101465.56;5018883;28;1723;-58
2022/10/09 04:30:47;;;;;;;;;;;;;;;15.78;76.63;101463.63;5012729;28;1992;-58
2022/10/09 04:33:12;;;;;;;;;;;;;;;15.79;76.29;101461.69;5018979;28;2271;-58
2022/10/09 04:35:41;;;;;;;;;;;;;;;15.78;76.49;101469.13;5020093;28;2274;-58
2022/10/09 04:38:06;;;;;;;;;;;;;;;15.76;76.90;101460.31;5018799;28;2225;-57
2022/10/09 04:40:31;;;;;;;;;;;;;;;15.76;76.50;101462.25;5021448;28;1811;-58
2022/10/09 04:42:56;;;;;;;;;;;;;;;15.76;76.74;101467.78;5017962;28;1819;-58
2022/10/09 04:45:21;;;;;;;;;;;;;;;15.75;76.48;101458.66;5011170;28;1860;-59
2022/10/09 04:47:47;;;;;;;;;;;;;;;15.76;76.58;101456.72;5015146;28;1936;-58
2022/10/09 04:50:13;;;;;;;;;;;;;;;15.76;76.60;101459.50;5022593;28;1925;-58
2022/10/09 04:52:38;;;;;;;;;;;;;;;15.75;76.53;101460.59;5020532;28;2283;-58
2022/10/09 04:55:04;;;;;;;;;;;;;;;15.74;76.49;101454.25;5023957;28;1972;-58
2022/10/09 04:57:29;;;;;;;;;;;;;;;15.74;76.41;101456.19;5012278;28;1901;-58
2022/10/09 04:59:54;;;;;;;;;;;;;;;15.73;76.67;101449.88;5014615;28;2244;-60
2022/10/09 05:02:19;;;;;;;;;;;;;;;15.73;76.48;101449.88;5019425;28;2128;-58
2022/10/09 05:04:45;;;;;;;;;;;;;;;15.73;76.58;101449.88;5018007;28;1935;-59
2022/10/09 05:07:10;;;;;;;;;;;;;;;15.73;76.54;101451.81;5020116;28;2240;-60
2022/10/09 05:09:35;;;;;;;;;;;;;;;15.73;76.56;101454.56;5018507;28;1795;-59
2022/10/09 05:12:01;;;;;;;;;;;;;;;15.71;76.66;101445.75;5011928;28;1851;-59
2022/10/09 05:14:26;;;;;;;;;;;;;;;15.72;76.49;101448.22;5014805;28;1974;-59
2022/10/09 05:16:51;;;;;;;;;;;;;;;15.72;76.60;101461.22;5013981;28;2244;-58
2022/10/09 05:19:16;;;;;;;;;;;;;;;15.71;76.88;101443.00;5018547;28;2139;-59
2022/10/09 05:21:41;;;;;;;;;;;;;;;15.71;76.83;101446.59;5014832;28;1979;-58
2022/10/09 05:24:07;;;;;;;;;;;;;;;15.71;76.46;101463.13;5014146;28;1921;-59
2022/10/09 05:26:32;;;;;;;;;;;;;;;15.70;76.62;101458.72;5009019;28;1821;-58
2022/10/09 05:28:57;;;;;;;;;;;;;;;15.70;76.63;101455.16;5014970;28;2169;-58
2022/10/09 05:31:26;;;;;;;;;;;;;;;15.70;76.35;101460.66;5019760;28;1768;-58
2022/10/09 05:33:52;;;;;;;;;;;;;;;15.69;76.48;101454.31;5009633;28;1773;-58
2022/10/09 05:36:18;;;;;;;;;;;;;;;15.70;76.49;101460.66;5014671;28;2203;-58
2022/10/09 05:38:43;;;;;;;;;;;;;;;15.69;76.53;101464.53;5013560;28;2029;-59
2022/10/09 05:41:13;;;;;;;;;;;;;;;15.69;76.71;101461.78;5022419;28;1877;-57
2022/10/09 05:43:39;;;;;;;;;;;;;;;15.69;76.77;101461.78;5018677;28;1982;-58
2022/10/09 05:46:04;;;;;;;;;;;;;;;15.68;76.80;101458.19;5013166;28;2043;-58
2022/10/09 05:48:29;;;;;;;;;;;;;;;15.68;76.46;101465.66;5021888;28;1915;-58
2022/10/09 05:51:04;;;;;;;;;;;;;;;15.70;76.76;101464.25;5009084;28;1879;-57
2022/10/09 05:53:29;;;;;;;;;;;;;;;15.69;76.62;101461.78;5010242;28;1967;-58
2022/10/09 05:55:54;;;;;;;;;;;;;;;15.70;76.62;101466.19;5023435;28;2217;-59
2022/10/09 05:58:20;;;;;;;;;;;;;;;15.71;76.54;101462.31;5022400;28;2256;-59
2022/10/09 06:00:45;;;;;;;;;;;;;;;15.69;76.44;101457.09;5022442;28;1859;-58
2022/10/09 06:03:10;;;;;;;;;;;;;;;15.72;76.89;101473.06;5024328;28;1908;-58
2022/10/09 06:05:35;;;;;;;;;;;;;;;15.72;76.92;101472.25;5013151;28;2028;-59
2022/10/09 06:08:00;;;;;;;;;;;;;;;15.72;76.82;101469.50;5023616;28;1902;-58
2022/10/09 06:10:25;;;;;;;;;;;;;;;15.73;76.71;101469.19;5015990;28;1876;-59
2022/10/09 06:12:50;;;;;;;;;;;;;;;15.76;76.65;101473.28;5015289;28;2127;-59
2022/10/09 06:15:16;;;;;;;;;;;;;;;15.76;76.79;101473.28;5004046;28;2083;-58
2022/10/09 06:17:41;;;;;;;;;;;;;;;15.75;76.73;101469.72;5020586;28;1969;-58
2022/10/09 06:20:06;;;;;;;;;;;;;;;15.74;76.76;101470.00;5006521;28;1977;-59
2022/10/09 06:22:31;;;;;;;;;;;;;;;15.75;77.06;101468.88;5002243;28;1866;-58
2022/10/09 06:24:56;;;;;;;;;;;;;;;15.75;76.86;101469.72;5009826;28;1920;-58
2022/10/09 06:27:22;;;;;;;;;;;;;;;15.76;76.76;101476.06;5019343;28;1838;-57
2022/10/09 06:29:47;;;;;;;;;;;;;;;15.73;76.89;101473.91;5007371;28;1753;-58
2022/10/09 06:32:12;;;;;;;;;;;;;;;15.74;76.65;101475.50;4998460;28;1587;-59
2022/10/09 06:34:37;;;;;;;;;;;;;;;15.72;76.82;101481.34;4999143;28;1325;-59
2022/10/09 06:37:02;;;;;;;;;;;;;;;15.70;76.71;101483.56;4999437;28;1944;-59
2022/10/09 06:39:27;;;;;;;;;;;;;;;15.71;76.87;101489.91;5009740;28;2124;-59
2022/10/09 06:41:52;;;;;;;;;;;;;;;15.69;77.04;101481.94;5017362;28;1918;-59
2022/10/09 06:44:18;;;;;;;;;;;;;;;15.69;76.95;101492.97;5008686;28;2323;-59
2022/10/09 06:46:44;;;;;;;;;;;;;;;15.70;77.01;101493.78;5009985;28;1962;-59
2022/10/09 06:49:09;;;;;;;;;;;;;;;15.70;76.56;101489.09;4999464;28;1521;-59
2022/10/09 06:51:35;;;;;;;;;;;;;;;15.69;76.87;101490.22;5005455;28;1933;-59
2022/10/09 06:54:01;;;;;;;;;;;;;;;15.70;77.16;101493.78;5012571;28;1816;-59
2022/10/09 06:56:27;;;;;;;;;;;;;;;15.69;76.78;101492.97;5009964;28;1932;-59
2022/10/09 06:58:53;;;;;;;;;;;;;;;15.70;77.00;101491.84;5012916;28;1953;-59
2022/10/09 07:01:19;;;;;;;;;;;;;;;15.71;76.89;101506.47;5021314;28;1701;-59
2022/10/09 07:03:46;;;;;;;;;;;;;;;15.73;77.18;101495.97;5019591;28;1975;-59
2022/10/09 07:06:15;;;;;;;;;;;;;;;15.77;76.96;101500.63;5013501;28;1644;-59
2022/10/09 07:08:41;;;;;;;;;;;;;;;15.77;76.80;101495.09;5031254;28;1601;-59
2022/10/09 07:11:08;;;;;;;;;;;;;;;15.75;77.02;101505.59;5013417;28;2026;-59
2022/10/09 07:13:33;;;;;;;;;;;;;;;15.72;77.28;101502.59;5012792;28;2003;-59
2022/10/09 07:15:58;;;;;;;;;;;;;;;15.69;77.09;101500.41;5014455;28;1980;-60
2022/10/09 07:18:23;;;;;;;;;;;;;;;15.68;77.24;101507.06;5020995;28;1618;-58
2022/10/09 07:20:48;;;;;;;;;;;;;;;15.67;77.16;101510.91;5016625;28;1738;-58
2022/10/09 07:23:13;;;;;;;;;;;;;;;15.66;76.95;101514.78;5026368;28;1565;-58
2022/10/09 07:25:39;;;;;;;;;;;;;;;15.64;77.37;101501.31;5013776;28;1872;-58
2022/10/09 07:28:04;;;;;;;;;;;;;;;15.64;77.03;101504.06;5013380;28;1850;-59
2022/10/09 07:30:29;;;;;;;;;;;;;;;15.63;77.24;101499.66;5021681;28;1940;-58
2022/10/09 07:32:54;;;;;;;;;;;;;;;15.63;76.78;101509.88;5022313;28;1648;-58
2022/10/09 07:35:19;;;;;;;;;;;;;;;15.62;76.91;101497.19;5013906;28;1799;-59
2022/10/09 07:37:44;;;;;;;;;;;;;;;15.63;76.73;101512.63;5024773;28;1891;-58
2022/10/09 07:40:09;;;;;;;;;;;;;;;15.61;76.92;101512.91;5021092;28;1814;-58
2022/10/09 07:42:35;;;;;;;;;;;;;;;15.60;76.97;101511.25;5013290;28;1766;-58
2022/10/09 07:45:00;;;;;;;;;;;;;;;15.60;76.60;101510.44;5019031;28;1789;-58
2022/10/09 07:47:25;;;;;;;;;;;;;;;15.58;76.88;101516.25;5025674;28;1663;-58
2022/10/09 07:49:50;;;;;;;;;;;;;;;15.58;76.84;101518.16;5021996;28;1826;-57
2022/10/09 07:52:15;;;;;;;;;;;;;;;15.60;76.74;101518.72;5019797;28;1680;-58
2022/10/09 07:54:40;;;;;;;;;;;;;;;15.63;76.76;101526.44;5021235;28;1801;-58
2022/10/09 07:57:06;;;;;;;;;;;;;;;15.67;76.63;101520.03;5015751;28;2099;-58
2022/10/09 07:59:31;;;;;;;;;;;;;;;15.69;76.64;101515.03;5017386;28;1897;-59
2022/10/09 08:01:56;;;;;;;;;;;;;;;15.68;76.71;101520.84;5026787;28;1843;-58
2022/10/09 08:04:21;;;;;;;;;;;;;;;15.66;76.38;101517.53;5029779;28;1539;-58
2022/10/09 08:06:46;;;;;;;;;;;;;;;15.65;76.54;101515.94;5016954;28;2064;-58
2022/10/09 08:09:11;;;;;;;;;;;;;;;15.63;76.37;101513.47;5007514;28;1972;-58
2022/10/09 08:11:39;;;;;;;;;;;;;;;15.62;76.41;101511.81;5014898;28;1928;-58
2022/10/09 08:14:04;;;;;;;;;;;;;;;15.63;76.37;101509.88;5016009;28;1959;-58
2022/10/09 08:16:30;;;;;;;;;;;;;;;15.62;76.45;101508.22;5015589;28;1889;-58
2022/10/09 08:18:59;;;;;;;;;;;;;;;15.61;76.37;101504.63;5020195;28;1909;-58
2022/10/09 08:21:27;;;;;;;;;;;;;;;15.61;76.49;101509.31;5013140;28;1937;-58
2022/10/09 08:23:53;;;;;;;;;;;;;;;15.61;76.41;101504.63;5009158;28;2085;-58
2022/10/09 08:26:20;;;;;;;;;;;;;;;15.66;75.94;101512.03;5016761;28;1850;-58
2022/10/09 08:28:52;;;;;;;;;;;;;;;15.67;76.28;101497.94;5012726;28;1797;-58
2022/10/09 08:31:17;;;;;;;;;;;;;;;15.67;76.20;101499.88;5015575;28;1651;-58
2022/10/09 08:33:43;;;;;;;;;;;;;;;15.65;76.32;101502.94;5013577;28;1905;-58
2022/10/09 08:36:09;;;;;;;;;;;;;;;15.64;76.36;101500.47;5019028;28;1951;-58
2022/10/09 08:38:35;;;;;;;;;;;;;;;15.63;76.26;101490.53;5011405;28;1938;-59
2022/10/09 08:41:09;;;;;;;;;;;;;;;15.60;76.16;101494.69;5015146;28;1736;-58
2022/10/09 08:43:36;;;;;;;;;;;;;;;15.61;76.11;101501.88;5005584;28;1652;-57
2022/10/09 08:46:22;;;;;;;;;;;;;;;15.60;76.03;101488.34;4998753;28;1737;-58
2022/10/09 08:48:48;;;;;;;;;;;;;;;15.60;76.23;101491.13;5020540;28;1501;-57
2022/10/09 08:51:24;;;;;;;;;;;;;;;15.58;76.06;101490.56;5022754;28;1851;-58
2022/10/09 08:53:53;;;;;;;;;;;;;;;15.58;75.91;101480.38;5008145;28;1962;-58
2022/10/09 08:56:18;;;;;;;;;;;;;;;15.58;76.37;101485.06;5009336;28;1963;-58
2022/10/09 08:58:43;;;;;;;;;;;;;;;15.57;76.15;101481.47;5013583;28;1761;-57
2022/10/09 09:01:25;;;;;;;;;;;;;;;15.56;76.18;101487.31;5017153;28;2000;-57
2022/10/09 09:04:16;;;;;;;;;;;;;;;15.58;75.99;101476.78;5006483;28;1888;-57
2022/10/09 09:06:56;;;;;;;;;;;;;;;15.57;76.08;101475.16;4998336;28;2035;-58
2022/10/09 09:09:30;;;;;;;;;;;;;;;15.57;75.96;101477.91;5010359;28;1799;-57
2022/10/09 09:11:59;;;;;;;;;;;;;;;15.57;76.10;101477.91;5004698;28;1811;-58
2022/10/09 09:14:30;;;;;;;;;;;;;;;15.56;76.04;101471.56;5025174;28;1945;-57
2022/10/09 09:17:11;;;;;;;;;;;;;;;15.57;75.75;101466.88;5013600;28;1890;-58
2022/10/09 09:19:55;;;;;;;;;;;;;;;15.56;75.71;101466.06;5010666;28;1949;-58
2022/10/09 09:22:22;;;;;;;;;;;;;;;15.56;75.88;101460.53;5018844;28;1834;-58
2022/10/09 09:24:50;;;;;;;;;;;;;;;15.55;75.90;101464.41;5022066;28;1557;-58
2022/10/09 09:27:18;;;;;;;;;;;;;;;15.55;75.79;101466.34;5021709;28;1739;-58
2022/10/09 09:30:03;;;;;;;;;;;;;;;15.56;75.84;101462.47;5022465;28;1641;-58
2022/10/09 09:32:29;;;;;;;;;;;;;;;15.56;75.96;101465.22;5018603;28;2054;-58
2022/10/09 09:35:02;;;;;;;;;;;;;;;15.55;75.61;101463.59;5020668;28;1823;-58
2022/10/09 09:37:27;;;;;;;;;;;;;;;15.55;75.33;101463.59;5015488;28;1965;-58
2022/10/09 09:39:53;;;;;;;;;;;;;;;15.54;75.33;101446.19;5020752;28;1887;-58
2022/10/09 09:42:19;;;;;;;;;;;;;;;15.54;75.77;101446.19;5023007;28;1736;-57
2022/10/09 09:44:56;;;;;;;;;;;;;;;15.55;75.68;101441.50;5025939;28;1801;-58
2022/10/09 09:47:37;;;;;;;;;;;;;;;15.54;75.59;101439.84;5012698;28;1963;-58
2022/10/09 09:50:03;;;;;;;;;;;;;;;15.55;75.70;101435.97;5064086;23;2335;-58
2022/10/09 09:52:33;;;;;;;;;;;;;;;15.55;75.67;101430.47;5026555;28;1820;-58
2022/10/09 09:54:58;;;;;;;;;;;;;;;15.52;75.60;101427.13;5029700;28;1907;-57
2022/10/09 09:57:32;;;;;;;;;;;;;;;15.51;75.88;101425.50;5024338;28;1965;-59
2022/10/09 10:00:06;;;;;;;;;;;;;;;15.54;75.19;101423.31;5028105;28;1827;-58
2022/10/09 10:02:31;;;;;;;;;;;;;;;15.53;75.07;101419.69;5016903;28;1719;-58
2022/10/09 10:04:58;;;;;;;;;;;;;;;15.52;75.52;101415.28;5025838;28;2074;-58
2022/10/09 10:07:30;;;;;;;;;;;;;;;15.54;75.36;101412.25;5014153;28;1700;-58
2022/10/09 10:10:06;;;;;;;;;;;;;;;15.54;75.53;101413.09;5013830;28;1541;-57
2022/10/09 10:12:31;;;;;;;;;;;;;;;15.53;75.79;101405.88;5021421;28;1758;-58
2022/10/09 10:14:56;;;;;;;;;;;;;;;15.52;75.38;101396.78;5010281;28;1981;-58
2022/10/09 10:17:27;;;;;;;;;;;;;;;15.51;75.52;101400.66;5018387;28;2115;-58
2022/10/09 10:19:53;;;;;;;;;;;;;;;15.51;75.44;101397.88;5010425;28;1960;-58
2022/10/09 10:22:25;;;;;;;;;;;;;;;15.52;75.33;101399.53;5008125;28;1659;-58
2022/10/09 10:24:52;;;;;;;;;;;;;;;15.52;75.09;101399.53;5015285;28;1907;-58
2022/10/09 10:27:20;;;;;;;;;;;;;;;15.51;75.02;101394.31;5016203;28;1841;-58
2022/10/09 10:29:46;;;;;;;;;;;;;;;15.51;75.02;101389.63;5018312;28;1799;-58
2022/10/09 10:32:14;;;;;;;;;;;;;;;15.51;74.92;101384.09;5021926;28;1851;-58
2022/10/09 10:34:49;;;;;;;;;;;;;;;15.51;75.45;101375.81;5019863;28;1867;-58
2022/10/09 10:37:14;;;;;;;;;;;;;;;15.51;75.45;101375.00;5015510;28;2097;-58
2022/10/09 10:40:02;;;;;;;;;;;;;;;15.52;75.33;101377.47;5010279;28;1774;-57
2022/10/09 10:42:33;;;;;;;;;;;;;;;15.52;75.02;101373.88;5004884;28;2451;-57
2022/10/09 10:45:02;;;;;;;;;;;;;;;15.52;75.65;101373.88;5016173;28;1608;-59
2022/10/09 10:47:29;;;;;;;;;;;;;;;15.52;75.12;101362.84;5003047;28;1646;-58
2022/10/09 10:49:54;;;;;;;;;;;;;;;15.51;75.08;101362.03;5012572;28;1178;-58
2022/10/09 10:52:35;;;;;;;;;;;;;;;15.51;75.16;101353.75;5013453;28;959;-58
2022/10/09 10:55:06;;;;;;;;;;;;;;;15.51;74.96;101350.97;5013775;28;917;-58
2022/10/09 10:57:49;;;;;;;;;;;;;;;15.50;75.15;101346.56;5012096;28;1997;-58
2022/10/09 11:00:16;;;;;;;;;;;;;;;15.49;75.42;101339.41;5017080;28;1953;-58
2022/10/09 11:02:41;;;;;;;;;;;;;;;15.50;74.86;101345.75;5012575;28;1774;-58
2022/10/09 11:05:06;;;;;;;;;;;;;;;15.50;74.93;101330.03;5011548;28;2032;-57
2022/10/09 11:07:31;;;;;;;;;;;;;;;15.49;74.78;101322.03;5021759;28;2138;-59
2022/10/09 11:09:56;;;;;;;;;;;;;;;15.51;75.10;101317.88;5002390;28;1600;-58
2022/10/09 11:12:27;;;;;;;;;;;;;;;15.51;75.06;101314.28;5013850;28;2207;-58
2022/10/09 11:14:56;;;;;;;;;;;;;;;15.50;75.02;101302.44;5017379;28;2196;-58
2022/10/09 11:17:29;;;;;;;;;;;;;;;15.49;75.18;101300.78;5022114;28;2149;-58
2022/10/09 11:20:13;;;;;;;;;;;;;;;15.50;75.12;101291.38;5005248;28;2335;-58
2022/10/09 11:22:58;;;;;;;;;;;;;;;15.51;75.13;101298.56;5015342;28;2199;-58
2022/10/09 11:25:25;;;;;;;;;;;;;;;15.51;75.17;101287.53;5016734;28;2110;-58
2022/10/09 11:28:02;;;;;;;;;;;;;;;15.49;75.11;101281.47;5015431;28;2219;-58
2022/10/09 11:30:29;;;;;;;;;;;;;;;15.52;75.10;101282.81;5021335;28;2178;-58
2022/10/09 11:33:03;;;;;;;;;;;;;;;15.51;75.02;101276.47;5012507;28;2061;-58
2022/10/09 11:35:41;;;;;;;;;;;;;;;15.51;74.84;101265.44;5011178;28;2135;-58
2022/10/09 11:38:17;;;;;;;;;;;;;;;15.52;74.20;101266.28;5020360;28;2067;-58
2022/10/09 11:40:42;;;;;;;;;;;;;;;15.49;75.00;101262.16;5011349;28;2187;-58
2022/10/09 11:43:26;;;;;;;;;;;;;;;15.52;74.96;101266.28;5016941;28;2070;-58
2022/10/09 11:45:54;;;;;;;;;;;;;;;15.51;74.91;101250.81;5009710;28;1961;-58
2022/10/09 11:48:41;;;;;;;;;;;;;;;15.52;74.84;101252.47;5018265;28;2164;-58
2022/10/09 11:51:21;;;;;;;;;;;;;;;15.54;74.96;101246.69;5014940;28;1977;-58
2022/10/09 11:53:49;;;;;;;;;;;;;;;15.52;74.79;101238.69;5013030;28;2056;-58
2022/10/09 11:56:21;;;;;;;;;;;;;;;15.54;74.79;101238.41;5016718;28;2250;-57
2022/10/09 11:58:57;;;;;;;;;;;;;;;15.54;74.91;101236.47;5008345;28;1939;-57
2022/10/09 12:01:24;;;;;;;;;;;;;;;15.56;75.05;101228.75;5004030;28;1652;-58
2022/10/09 12:04:08;;;;;;;;;;;;;;;15.57;74.86;101224.84;5013342;28;991;-58
2022/10/09 12:06:45;;;;;;;;;;;;;;;15.58;74.74;101220.97;5013422;28;920;-57
2022/10/09 12:09:20;;;;;;;;;;;;;;;15.58;74.89;101220.13;5014269;28;2102;-58
2022/10/09 12:11:58;;;;;;;;;;;;;;;15.60;74.57;101215.16;4994600;28;1662;-58
2022/10/09 12:14:24;;;;;;;;;;;;;;;15.61;74.73;101214.88;4993982;28;874;-58
2022/10/09 12:16:49;;;;;;;;;;;;;;;15.60;74.63;101206.88;4993952;28;1882;-59
2022/10/09 12:19:22;;;;;;;;;;;;;;;15.60;74.80;101198.59;4994243;28;1210;-58
2022/10/09 12:21:55;;;;;;;;;;;;;;;15.61;74.72;101198.31;4999683;28;2153;-58
2022/10/09 12:24:25;;;;;;;;;;;;;;;15.59;74.71;101191.44;5017956;28;1714;-58
2022/10/09 12:26:52;;;;;;;;;;;;;;;15.58;74.91;101189.78;4994191;28;866;-58
2022/10/09 12:29:22;;;;;;;;;;;;;;;15.55;74.11;101188.47;4994060;28;1272;-58
2022/10/09 12:31:49;;;;;;;;;;;;;;;15.55;74.67;101182.13;4994148;28;1060;-58
2022/10/09 12:34:14;;;;;;;;;;;;;;;15.55;74.44;101182.94;4994122;28;1015;-59
2022/10/09 12:36:39;;;;;;;;;;;;;;;15.56;74.57;101183.75;5007807;28;2267;-58
2022/10/09 12:39:18;;;;;;;;;;;;;;;15.55;74.35;101179.34;5008129;28;1558;-58
2022/10/09 12:41:44;;;;;;;;;;;;;;;15.54;74.29;101173.03;4993258;28;1063;-58
2022/10/09 12:44:30;;;;;;;;;;;;;;;15.56;73.91;101170.78;4993994;28;988;-58
2022/10/09 12:46:59;;;;;;;;;;;;;;;15.58;74.17;101168.53;4993118;28;1775;-58
2022/10/09 12:49:24;;;;;;;;;;;;;;;15.60;74.27;101160.78;4995551;28;2042;-58
2022/10/09 12:51:51;;;;;;;;;;;;;;;15.62;74.37;101157.72;5010089;28;1684;-57